Time;durP1;ratioP1;P1;durP2;ratioP2;P2;SDS_P1;SDS_P2;PMS_P1;PMS_P2;Temp;Humidity;BMP_temperature;BMP_pressure;BME280_temperature;BME280_humidity;BME280_pressure;Samples;Min_cycle;Max_cycle;Signal;HPM_P1;HPM_P2
2023/08/31 00:00:33;;;;;;;6.07;4.03;;;;;;;;;;5023329;28;20108;-49
2023/08/31 00:03:27;;;;;;;8.63;4.28;;;;;;;;;;5008864;28;20061;-46
2023/08/31 00:06:14;;;;;;;7.95;4.22;;;;;;;;;;5013527;28;20049;-55
2023/08/31 00:09:11;;;;;;;12.13;4.13;;;;;;;;;;5014591;28;20049;-60
2023/08/31 00:11:58;;;;;;;13.20;4.53;;;;;;;;;;5015802;28;20049;-59
2023/08/31 00:14:52;;;;;;;6.13;3.63;;;;;;;;;;5019210;28;20049;-59
2023/08/31 00:17:45;;;;;;;7.82;3.63;;;;;;;;;;5015495;28;20394;-60
2023/08/31 00:20:45;;;;;;;8.07;4.00;;;;;;;;;;5002059;28;20069;-60
2023/08/31 00:23:34;;;;;;;6.93;3.75;;;;;;;;;;5002831;28;20077;-60
2023/08/31 00:26:30;;;;;;;36.35;4.43;;;;;;;;;;5000023;28;20056;-47
2023/08/31 00:29:16;;;;;;;8.48;3.15;;;;;;;;;;4998648;28;20144;-49
2023/08/31 00:32:09;;;;;;;14.38;3.03;;;;;;;;;;4998630;28;20109;-51
2023/08/31 00:34:57;;;;;;;7.03;3.40;;;;;;;;;;5003164;28;20129;-64
2023/08/31 00:37:51;;;;;;;14.18;3.28;;;;;;;;;;4999735;28;20049;-66
2023/08/31 00:40:47;;;;;;;9.82;3.50;;;;;;;;;;4999589;28;20517;-67
2023/08/31 00:43:41;;;;;;;8.50;3.50;;;;;;;;;;5001206;28;20057;-65
2023/08/31 00:46:28;;;;;;;4.85;3.88;;;;;;;;;;5003695;28;20054;-66
2023/08/31 00:49:22;;;;;;;7.22;3.38;;;;;;;;;;5001462;28;20113;-66
2023/08/31 00:52:09;;;;;;;5.63;3.53;;;;;;;;;;5002300;28;20594;-66
2023/08/31 00:55:06;;;;;;;5.38;3.47;;;;;;;;;;5000666;28;20046;-60
2023/08/31 00:57:53;;;;;;;6.72;3.13;;;;;;;;;;5007580;28;20500;-60
2023/08/31 01:01:03;;;;;;;5.90;3.65;;;;;;;;;;5002424;28;20468;-60
2023/08/31 01:04:00;;;;;;;5.72;3.35;;;;;;;;;;5007043;28;20473;-51
2023/08/31 01:06:56;;;;;;;18.33;5.10;;;;;;;;;;5004348;28;20046;-64
2023/08/31 01:09:43;;;;;;;9.70;4.45;;;;;;;;;;4998387;28;20073;-62
2023/08/31 01:12:51;;;;;;;9.00;4.30;;;;;;;;;;5004235;28;20053;-63
2023/08/31 01:15:38;;;;;;;5.57;3.95;;;;;;;;;;4996400;28;20246;-64
2023/08/31 01:18:39;;;;;;;6.35;3.90;;;;;;;;;;5005581;28;20120;-63
2023/08/31 01:21:37;;;;;;;5.65;3.58;;;;;;;;;;4991918;28;20051;-59
2023/08/31 01:24:31;;;;;;;7.25;3.35;;;;;;;;;;5001267;28;20061;-59
2023/08/31 01:27:19;;;;;;;7.68;3.97;;;;;;;;;;5000811;28;20049;-59
2023/08/31 01:30:13;;;;;;;6.68;3.60;;;;;;;;;;5000736;28;20053;-59
2023/08/31 01:33:00;;;;;;;10.10;3.72;;;;;;;;;;4999352;28;20757;-60
2023/08/31 01:35:55;;;;;;;8.85;3.92;;;;;;;;;;4999637;28;20124;-50
2023/08/31 01:38:44;;;;;;;5.32;3.58;;;;;;;;;;5003114;28;20054;-54
2023/08/31 01:41:41;;;;;;;13.35;3.05;;;;;;;;;;5002353;28;20061;-52
2023/08/31 01:44:32;;;;;;;5.35;2.67;;;;;;;;;;4993580;28;20112;-48
2023/08/31 01:47:26;;;;;;;3.72;2.63;;;;;;;;;;4995646;28;20052;-50
2023/08/31 01:50:13;;;;;;;7.03;2.67;;;;;;;;;;4991228;28;20469;-63
2023/08/31 01:53:07;;;;;;;6.15;3.10;;;;;;;;;;4996710;28;20305;-63
2023/08/31 01:55:54;;;;;;;10.25;3.83;;;;;;;;;;4996556;28;20058;-63
2023/08/31 01:58:48;;;;;;;8.50;4.63;;;;;;;;;;5000207;28;20291;-64
2023/08/31 02:01:36;;;;;;;8.45;4.50;;;;;;;;;;4999711;28;20073;-52
2023/08/31 02:04:29;;;;;;;10.02;5.40;;;;;;;;;;5002010;28;20547;-60
2023/08/31 02:07:16;;;;;;;6.43;4.55;;;;;;;;;;5001225;28;20120;-60
2023/08/31 02:10:10;;;;;;;10.30;5.13;;;;;;;;;;5003555;28;20057;-60
2023/08/31 02:12:57;;;;;;;9.93;4.53;;;;;;;;;;5002827;28;20131;-60
2023/08/31 02:15:54;;;;;;;9.02;4.03;;;;;;;;;;5000803;28;20057;-60
2023/08/31 02:18:48;;;;;;;6.63;4.00;;;;;;;;;;5005026;28;20061;-46
2023/08/31 02:21:42;;;;;;;11.43;4.15;;;;;;;;;;5000772;28;20060;-49
2023/08/31 02:24:29;;;;;;;4.35;3.13;;;;;;;;;;5003087;28;20058;-47
2023/08/31 02:27:23;;;;;;;11.57;3.95;;;;;;;;;;5000530;28;20432;-48
2023/08/31 02:30:17;;;;;;;8.75;4.07;;;;;;;;;;4998861;28;20695;-59
2023/08/31 02:33:11;;;;;;;8.10;3.60;;;;;;;;;;5003355;28;20054;-60
2023/08/31 02:35:59;;;;;;;6.68;3.55;;;;;;;;;;5001099;28;20603;-60
2023/08/31 02:38:53;;;;;;;7.45;3.70;;;;;;;;;;4997156;28;20065;-60
2023/08/31 02:41:40;;;;;;;11.43;4.57;;;;;;;;;;4995104;28;20054;-59
2023/08/31 02:44:34;;;;;;;10.02;4.03;;;;;;;;;;5000779;28;20066;-62
2023/08/31 02:47:21;;;;;;;12.00;3.80;;;;;;;;;;5000690;28;20053;-60
2023/08/31 02:50:15;;;;;;;7.25;3.28;;;;;;;;;;4997728;28;20077;-60
2023/08/31 02:53:02;;;;;;;6.55;3.58;;;;;;;;;;5002040;28;20049;-59
2023/08/31 02:55:56;;;;;;;6.72;4.20;;;;;;;;;;5003422;28;20057;-60
2023/08/31 02:58:43;;;;;;;5.10;3.08;;;;;;;;;;4999463;28;20046;-47
2023/08/31 03:01:38;;;;;;;17.08;4.47;;;;;;;;;;5002060;28;20585;-65
2023/08/31 03:04:24;;;;;;;59.22;5.88;;;;;;;;;;5000744;28;20057;-65
2023/08/31 03:07:18;;;;;;;41.00;5.75;;;;;;;;;;5000792;28;20054;-66
2023/08/31 03:10:05;;;;;;;37.60;6.30;;;;;;;;;;5005330;28;20050;-66
2023/08/31 03:12:59;;;;;;;27.80;4.82;;;;;;;;;;4997231;28;20054;-65
2023/08/31 03:15:46;;;;;;;26.95;5.30;;;;;;;;;;5003755;28;20050;-63
2023/08/31 03:18:46;;;;;;;22.17;6.75;;;;;;;;;;5001392;28;20485;-63
2023/08/31 03:21:33;;;;;;;35.83;6.45;;;;;;;;;;4998372;28;20045;-64
2023/08/31 03:24:27;;;;;;;46.08;6.15;;;;;;;;;;5000162;28;20054;-64
2023/08/31 03:27:15;;;;;;;21.25;5.50;;;;;;;;;;4997961;28;20133;-48
2023/08/31 03:30:08;;;;;;;38.55;6.53;;;;;;;;;;5002107;28;20050;-60
2023/08/31 03:32:55;;;;;;;14.50;3.83;;;;;;;;;;5004206;28;20573;-60
2023/08/31 03:35:49;;;;;;;13.07;4.03;;;;;;;;;;5004875;28;20121;-60
2023/08/31 03:38:37;;;;;;;53.70;7.53;;;;;;;;;;5001711;28;20054;-60
2023/08/31 03:41:30;;;;;;;116.45;8.27;;;;;;;;;;5001736;28;20425;-59
2023/08/31 03:44:17;;;;;;;41.28;5.47;;;;;;;;;;5001412;28;20402;-48
2023/08/31 03:47:11;;;;;;;33.65;6.28;;;;;;;;;;5004890;28;20057;-48
2023/08/31 03:49:58;;;;;;;26.15;5.88;;;;;;;;;;5000058;28;20646;-48
2023/08/31 03:52:52;;;;;;;27.67;5.15;;;;;;;;;;5003458;28;21725;-48
2023/08/31 03:55:39;;;;;;;12.65;5.13;;;;;;;;;;5002407;28;20157;-60
2023/08/31 03:58:33;;;;;;;15.82;6.05;;;;;;;;;;5001470;28;20049;-61
2023/08/31 04:01:20;;;;;;;11.73;5.82;;;;;;;;;;4999832;28;20073;-60
2023/08/31 04:04:14;;;;;;;12.65;5.22;;;;;;;;;;5005161;28;20062;-59
2023/08/31 04:07:01;;;;;;;9.15;5.35;;;;;;;;;;5008437;28;20073;-59
2023/08/31 04:09:56;;;;;;;7.07;4.20;;;;;;;;;;5006690;28;20054;-59
2023/08/31 04:12:42;;;;;;;10.32;3.92;;;;;;;;;;5004757;28;20486;-51
2023/08/31 04:15:37;;;;;;;9.27;3.72;;;;;;;;;;5004000;28;20052;-53
2023/08/31 04:18:31;;;;;;;7.97;4.82;;;;;;;;;;5008105;28;20153;-53
2023/08/31 04:21:25;;;;;;;17.95;5.47;;;;;;;;;;5005146;28;20057;-50
2023/08/31 04:24:12;;;;;;;8.80;4.68;;;;;;;;;;5005076;28;20473;-56
2023/08/31 04:27:06;;;;;;;6.32;4.55;;;;;;;;;;5008195;28;20046;-65
2023/08/31 04:29:53;;;;;;;10.20;5.10;;;;;;;;;;5001803;28;20070;-65
2023/08/31 04:32:48;;;;;;;8.82;4.90;;;;;;;;;;5005448;28;20046;-66
2023/08/31 04:35:34;;;;;;;7.63;3.75;;;;;;;;;;5006090;28;20124;-65
2023/08/31 04:38:28;;;;;;;10.60;4.30;;;;;;;;;;5000415;28;20100;-66
2023/08/31 04:41:15;;;;;;;8.80;4.47;;;;;;;;;;5003725;28;20583;-60
2023/08/31 04:44:09;;;;;;;7.90;4.28;;;;;;;;;;4999738;28;20050;-60
2023/08/31 04:46:56;;;;;;;14.88;5.78;;;;;;;;;;5004010;28;20059;-59
2023/08/31 04:49:50;;;;;;;14.55;4.97;;;;;;;;;;5002963;28;20056;-60
2023/08/31 04:52:37;;;;;;;36.25;6.43;;;;;;;;;;5003955;28;20520;-66
2023/08/31 04:55:31;;;;;;;26.73;6.18;;;;;;;;;;5009261;28;20093;-66
2023/08/31 04:58:18;;;;;;;21.92;5.97;;;;;;;;;;5001313;28;20108;-66
2023/08/31 05:01:12;;;;;;;58.42;7.28;;;;;;;;;;5001781;28;20544;-67
2023/08/31 05:03:59;;;;;;;39.22;7.68;;;;;;;;;;4994602;28;20188;-66
2023/08/31 05:06:53;;;;;;;55.63;7.90;;;;;;;;;;5004790;28;20053;-66
2023/08/31 05:09:40;;;;;;;38.42;7.75;;;;;;;;;;5005277;28;20045;-60
2023/08/31 05:12:34;;;;;;;18.98;6.55;;;;;;;;;;5004213;28;20064;-60
2023/08/31 05:15:28;;;;;;;13.57;5.47;;;;;;;;;;5009506;28;20510;-60
2023/08/31 05:18:28;;;;;;;7.78;5.15;;;;;;;;;;4999179;28;20045;-59
2023/08/31 05:21:29;;;;;;;8.55;5.15;;;;;;;;;;5005830;28;20060;-60
2023/08/31 05:24:16;;;;;;;8.15;4.65;;;;;;;;;;5006706;28;20088;-49
2023/08/31 05:27:10;;;;;;;12.00;6.13;;;;;;;;;;5005719;28;20042;-48
2023/08/31 05:29:57;;;;;;;12.10;6.00;;;;;;;;;;5002264;28;20057;-49
2023/08/31 05:32:51;;;;;;;10.27;5.55;;;;;;;;;;4999690;28;20054;-48
2023/08/31 05:35:38;;;;;;;17.33;6.65;;;;;;;;;;5002823;28;20068;-49
2023/08/31 05:38:32;;;;;;;14.13;6.03;;;;;;;;;;5003789;28;20062;-50
2023/08/31 05:41:19;;;;;;;8.70;5.78;;;;;;;;;;5003418;28;20525;-52
2023/08/31 05:44:13;;;;;;;16.75;5.88;;;;;;;;;;5003772;28;20583;-50
2023/08/31 05:47:00;;;;;;;11.65;5.90;;;;;;;;;;5004515;28;20494;-50
2023/08/31 05:49:54;;;;;;;12.05;6.10;;;;;;;;;;5004414;28;20045;-50
2023/08/31 05:52:43;;;;;;;11.43;5.72;;;;;;;;;;5008071;28;20049;-61
2023/08/31 05:55:35;;;;;;;11.23;5.72;;;;;;;;;;5006981;28;20783;-60
2023/08/31 05:58:23;;;;;;;9.05;5.75;;;;;;;;;;5007094;28;20124;-60
2023/08/31 06:01:16;;;;;;;7.85;4.90;;;;;;;;;;5008076;28;20053;-59
2023/08/31 06:04:03;;;;;;;8.60;5.40;;;;;;;;;;5007366;28;20698;-60
2023/08/31 06:06:57;;;;;;;7.88;5.53;;;;;;;;;;5001504;28;20525;-59
2023/08/31 06:09:44;;;;;;;7.57;5.13;;;;;;;;;;5005208;28;20074;-60
2023/08/31 06:12:38;;;;;;;6.45;4.53;;;;;;;;;;5007075;28;20059;-59
2023/08/31 06:15:25;;;;;;;5.75;4.20;;;;;;;;;;5002640;28;20446;-60
2023/08/31 06:18:19;;;;;;;6.00;4.38;;;;;;;;;;5004021;28;20078;-52
2023/08/31 06:21:13;;;;;;;6.80;4.45;;;;;;;;;;5006151;28;20481;-48
2023/08/31 06:24:10;;;;;;;6.88;4.75;;;;;;;;;;5004842;28;20054;-46
2023/08/31 06:26:56;;;;;;;9.07;5.60;;;;;;;;;;5004618;28;20050;-47
2023/08/31 06:29:48;;;;;;;10.15;5.38;;;;;;;;;;5004481;28;20093;-52
2023/08/31 06:32:35;;;;;;;8.50;6.00;;;;;;;;;;5001871;28;20041;-49
2023/08/31 06:35:29;;;;;;;13.00;7.95;;;;;;;;;;5001228;28;20049;-60
2023/08/31 06:38:23;;;;;;;10.75;6.47;;;;;;;;;;4994104;28;20046;-60
2023/08/31 06:41:17;;;;;;;9.15;4.65;;;;;;;;;;5004312;28;20085;-60
2023/08/31 06:44:11;;;;;;;10.07;5.40;;;;;;;;;;5003684;28;20521;-60
2023/08/31 06:46:58;;;;;;;9.07;5.13;;;;;;;;;;5007529;28;20593;-59
2023/08/31 06:49:52;;;;;;;13.13;7.15;;;;;;;;;;5005490;28;20050;-65
2023/08/31 06:52:46;;;;;;;10.05;6.53;;;;;;;;;;5008182;28;20046;-64
2023/08/31 06:55:33;;;;;;;12.23;6.28;;;;;;;;;;5004820;28;20061;-64
2023/08/31 06:58:27;;;;;;;12.18;6.95;;;;;;;;;;5007369;28;20050;-65
2023/08/31 07:01:15;;;;;;;10.05;5.93;;;;;;;;;;5000837;28;20056;-64
2023/08/31 07:04:09;;;;;;;13.25;7.78;;;;;;;;;;5007271;28;20054;-60
2023/08/31 07:06:56;;;;;;;14.75;8.23;;;;;;;;;;5010449;28;20065;-59
2023/08/31 07:09:51;;;;;;;12.60;6.93;;;;;;;;;;5009743;28;20145;-59
2023/08/31 07:12:37;;;;;;;14.82;8.45;;;;;;;;;;5009346;28;20058;-59
2023/08/31 07:15:31;;;;;;;14.75;7.63;;;;;;;;;;5008898;28;20046;-50
2023/08/31 07:18:25;;;;;;;10.27;6.38;;;;;;;;;;5014153;28;20060;-53
2023/08/31 07:21:26;;;;;;;9.75;6.43;;;;;;;;;;5023521;28;20057;-55
2023/08/31 07:24:13;;;;;;;10.95;6.57;;;;;;;;;;5027417;28;20153;-55
2023/08/31 07:27:07;;;;;;;11.48;6.80;;;;;;;;;;5027703;28;20056;-55
2023/08/31 07:29:57;;;;;;;5.78;4.63;;;;;;;;;;5027790;28;20242;-55
2023/08/31 07:32:51;;;;;;;8.63;6.22;;;;;;;;;;5021305;28;20052;-48
2023/08/31 07:35:57;;;;;;;10.93;7.30;;;;;;;;;;5028991;28;20500;-52
2023/08/31 07:38:51;;;;;;;10.27;7.20;;;;;;;;;;5024202;28;20120;-48
2023/08/31 07:41:38;;;;;;;10.25;5.90;;;;;;;;;;5018973;28;21100;-58
2023/08/31 07:44:32;;;;;;;6.50;4.80;;;;;;;;;;5020002;28;20095;-50
2023/08/31 07:47:19;;;;;;;5.72;4.05;;;;;;;;;;5026768;28;20111;-49
2023/08/31 07:50:14;;;;;;;6.32;3.25;;;;;;;;;;5010232;28;20421;-47
2023/08/31 07:53:07;;;;;;;8.18;3.58;;;;;;;;;;5030875;28;20413;-49
2023/08/31 07:56:00;;;;;;;4.15;2.72;;;;;;;;;;5030141;28;20097;-50
2023/08/31 07:58:47;;;;;;;8.95;2.58;;;;;;;;;;5024357;28;20671;-48
2023/08/31 08:01:41;;;;;;;7.78;2.40;;;;;;;;;;5021482;28;20087;-49
2023/08/31 08:04:29;;;;;;;3.20;2.00;;;;;;;;;;5018885;28;20064;-51
2023/08/31 08:07:22;;;;;;;4.25;2.13;;;;;;;;;;5024181;28;20061;-47
2023/08/31 08:10:10;;;;;;;3.90;2.03;;;;;;;;;;5027855;28;20048;-56
2023/08/31 08:13:03;;;;;;;2.60;1.95;;;;;;;;;;5011980;28;20045;-59
2023/08/31 08:15:50;;;;;;;7.72;1.80;;;;;;;;;;5023343;28;20539;-58
2023/08/31 08:18:51;;;;;;;3.22;2.10;;;;;;;;;;5021540;28;20069;-58
2023/08/31 08:21:44;;;;;;;2.72;1.95;;;;;;;;;;5022742;28;20064;-58
2023/08/31 08:24:39;;;;;;;3.00;1.92;;;;;;;;;;5022329;28;20055;-59
2023/08/31 08:27:26;;;;;;;2.17;1.90;;;;;;;;;;5019415;28;20736;-58
2023/08/31 08:30:20;;;;;;;3.60;1.75;;;;;;;;;;5021294;28;20388;-62
2023/08/31 08:33:08;;;;;;;3.92;2.00;;;;;;;;;;5021296;28;20232;-62
2023/08/31 08:36:02;;;;;;;4.88;1.80;;;;;;;;;;5021432;28;20085;-62
2023/08/31 08:38:49;;;;;;;2.63;1.80;;;;;;;;;;5020739;28;20115;-62
2023/08/31 08:41:43;;;;;;;4.07;1.80;;;;;;;;;;5023265;28;20532;-52
2023/08/31 08:44:34;;;;;;;7.15;2.20;;;;;;;;;;5023035;28;20057;-49
2023/08/31 08:47:27;;;;;;;2.67;1.80;;;;;;;;;;5021781;28;20057;-50
2023/08/31 08:50:15;;;;;;;2.80;1.75;;;;;;;;;;5021943;28;20681;-48
2023/08/31 08:53:10;;;;;;;8.82;1.95;;;;;;;;;;5022805;28;20092;-45
2023/08/31 08:55:58;;;;;;;3.10;1.60;;;;;;;;;;5022054;28;20053;-52
2023/08/31 08:58:51;;;;;;;7.60;1.52;;;;;;;;;;5022663;28;20107;-49
2023/08/31 09:01:46;;;;;;;3.75;1.88;;;;;;;;;;5020706;28;20585;-49
2023/08/31 09:04:33;;;;;;;2.78;1.50;;;;;;;;;;5018675;28;20061;-48
2023/08/31 09:07:30;;;;;;;3.58;1.90;;;;;;;;;;5013410;28;20429;-63
2023/08/31 09:10:17;;;;;;;3.10;1.50;;;;;;;;;;5022027;28;20084;-60
2023/08/31 09:13:17;;;;;;;4.05;1.75;;;;;;;;;;5021435;28;20056;-59
2023/08/31 09:16:23;;;;;;;7.28;1.88;;;;;;;;;;5021812;28;20049;-60
2023/08/31 09:19:28;;;;;;;4.10;1.73;;;;;;;;;;5012696;28;20428;-60
2023/08/31 09:22:23;;;;;;;5.30;1.73;;;;;;;;;;4999005;28;20109;-60
2023/08/31 09:25:20;;;;;;;4.68;1.80;;;;;;;;;;5008179;28;20445;-59
2023/08/31 09:28:06;;;;;;;3.25;1.85;;;;;;;;;;5005941;28;20478;-60
2023/08/31 09:31:07;;;;;;;2.70;1.63;;;;;;;;;;5006682;28;20049;-60
2023/08/31 09:33:54;;;;;;;5.35;1.80;;;;;;;;;;5004453;28;20073;-60
2023/08/31 09:36:50;;;;;;;3.47;2.00;;;;;;;;;;5003046;28;20046;-63
2023/08/31 09:39:37;;;;;;;6.18;2.22;;;;;;;;;;5007874;28;20106;-60
2023/08/31 09:42:38;;;;;;;7.47;2.15;;;;;;;;;;5002010;28;20668;-59
2023/08/31 09:45:26;;;;;;;4.80;2.15;;;;;;;;;;5004214;28;20544;-60
2023/08/31 09:48:27;;;;;;;3.00;1.80;;;;;;;;;;5006742;28;20113;-60
2023/08/31 09:51:22;;;;;;;3.42;1.95;;;;;;;;;;5005974;28;20069;-60
2023/08/31 09:54:30;;;;;;;6.07;2.05;;;;;;;;;;5006529;28;20116;-58
2023/08/31 09:57:18;;;;;;;5.18;2.03;;;;;;;;;;5008818;28;20521;-58
2023/08/31 10:00:21;;;;;;;3.03;2.13;;;;;;;;;;5006317;28;20137;-58
2023/08/31 10:03:08;;;;;;;6.90;1.90;;;;;;;;;;5005318;28;20056;-58
2023/08/31 10:06:02;;;;;;;2.58;1.73;;;;;;;;;;5003829;28;20140;-60
2023/08/31 10:08:49;;;;;;;4.55;1.88;;;;;;;;;;5005451;28;20057;-58
2023/08/31 10:11:44;;;;;;;6.70;1.90;;;;;;;;;;5007529;28;20057;-59
2023/08/31 10:14:31;;;;;;;6.50;2.20;;;;;;;;;;5001758;28;20053;-59
2023/08/31 10:17:25;;;;;;;2.80;1.85;;;;;;;;;;5006231;28;20046;-59
2023/08/31 10:20:19;;;;;;;4.05;2.13;;;;;;;;;;5001957;28;20064;-59
2023/08/31 10:23:12;;;;;;;;;;;;;;;;;;5004492;28;20053;-63
2023/08/31 10:26:06;;;;;;;3.58;1.80;;;;;;;;;;5002369;28;20447;-63
2023/08/31 10:28:53;;;;;;;3.90;1.95;;;;;;;;;;5003280;28;20458;-63
2023/08/31 10:31:47;;;;;;;2.45;1.77;;;;;;;;;;5000603;28;20387;-63
2023/08/31 10:34:41;;;;;;;2.50;1.83;;;;;;;;;;5002150;28;20058;-48
2023/08/31 10:37:28;;;;;;;4.30;2.00;;;;;;;;;;4998538;28;20053;-50
2023/08/31 10:40:22;;;;;;;3.78;1.90;;;;;;;;;;5000577;28;20103;-49
2023/08/31 10:43:16;;;;;;;3.00;1.85;;;;;;;;;;5011367;28;20050;-47
2023/08/31 10:46:38;;;;;;;2.25;1.73;;;;;;;;;;5008955;28;20066;-49
2023/08/31 10:49:25;;;;;;;3.25;2.00;;;;;;;;;;5007264;28;20140;-47
2023/08/31 10:52:18;;;;;;;3.88;1.90;;;;;;;;;;5007045;28;20062;-58
2023/08/31 10:55:12;;;;;;;3.67;1.80;;;;;;;;;;5008808;28;20517;-58
2023/08/31 10:58:12;;;;;;;5.45;2.10;;;;;;;;;;5006718;28;20054;-56
2023/08/31 11:00:59;;;;;;;2.72;1.70;;;;;;;;;;5007500;28;20117;-60
2023/08/31 11:03:59;;;;;;;5.25;1.85;;;;;;;;;;5003375;28;20468;-60
2023/08/31 11:06:46;;;;;;;5.38;1.70;;;;;;;;;;5005606;28;20057;-60
2023/08/31 11:09:43;;;;;;;5.53;1.90;;;;;;;;;;5009131;28;20058;-60
2023/08/31 11:12:32;;;;;;;4.60;1.98;;;;;;;;;;5010147;28;20459;-60
2023/08/31 11:15:29;;;;;;;4.40;1.70;;;;;;;;;;4999158;28;20049;-60
2023/08/31 11:18:21;;;;;;;3.28;1.80;;;;;;;;;;4996064;28;20080;-60
2023/08/31 11:21:22;;;;;;;3.05;2.03;;;;;;;;;;5001260;28;20061;-63
2023/08/31 11:24:09;;;;;;;1.92;1.55;;;;;;;;;;5004668;28;20065;-63
2023/08/31 11:27:03;;;;;;;2.55;1.95;;;;;;;;;;5004593;28;20505;-63
2023/08/31 11:29:50;;;;;;;4.07;1.85;;;;;;;;;;5007793;28;20054;-58
2023/08/31 11:32:47;;;;;;;3.17;1.70;;;;;;;;;;5010331;28;20062;-51
2023/08/31 11:35:42;;;;;;;4.13;1.63;;;;;;;;;;5009174;28;20145;-52
2023/08/31 11:38:36;;;;;;;3.08;1.42;;;;;;;;;;5005370;28;20413;-51
2023/08/31 11:41:24;;;;;;;2.40;1.50;;;;;;;;;;5006088;28;20046;-51
2023/08/31 11:44:17;;;;;;;3.05;1.42;;;;;;;;;;5005398;28;20424;-53
2023/08/31 11:47:05;;;;;;;4.40;1.52;;;;;;;;;;5003906;28;20140;-53
2023/08/31 11:50:01;;;;;;;1.40;1.30;;;;;;;;;;5005898;28;20061;-62
2023/08/31 11:52:47;;;;;;;3.20;1.48;;;;;;;;;;5004810;28;20041;-61
2023/08/31 11:55:50;;;;;;;3.05;1.63;;;;;;;;;;5007318;28;20153;-62
2023/08/31 11:58:42;;;;;;;2.83;1.65;;;;;;;;;;5004786;28;20628;-50
2023/08/31 12:01:37;;;;;;;2.78;1.58;;;;;;;;;;5006601;28;20050;-53
2023/08/31 12:04:25;;;;;;;4.78;2.00;;;;;;;;;;5008898;28;21559;-51
2023/08/31 12:07:19;;;;;;;5.93;2.22;;;;;;;;;;5009627;28;20457;-51
2023/08/31 12:10:07;;;;;;;4.13;1.80;;;;;;;;;;5004319;28;20073;-50
2023/08/31 12:13:11;;;;;;;3.25;1.77;;;;;;;;;;5002456;28;20489;-49
2023/08/31 12:15:58;;;;;;;2.05;1.67;;;;;;;;;;5006014;28;20053;-57
2023/08/31 12:18:59;;;;;;;5.18;2.10;;;;;;;;;;5003845;28;20054;-57
2023/08/31 12:21:53;;;;;;;3.33;1.73;;;;;;;;;;5005287;28;20132;-54
2023/08/31 12:24:46;;;;;;;2.45;1.70;;;;;;;;;;5005306;28;20113;-58
2023/08/31 12:27:33;;;;;;;3.40;1.73;;;;;;;;;;5002787;28;20054;-62
2023/08/31 12:30:27;;;;;;;3.13;2.10;;;;;;;;;;5003948;28;20057;-60
2023/08/31 12:33:14;;;;;;;3.55;1.77;;;;;;;;;;5006841;28;20128;-60
2023/08/31 12:36:08;;;;;;;3.00;1.88;;;;;;;;;;5006511;28;20111;-61
2023/08/31 12:38:35;;;;;;;5.43;2.30;;;;;;;;;;5004869;28;20144;-60
2023/08/31 12:41:02;;;;;;;5.78;1.80;;;;;;;;;;5005197;28;20620;-60
2023/08/31 12:43:36;;;;;;;2.85;2.10;;;;;;;;;;4989090;28;20177;-60
2023/08/31 12:46:05;;;;;;;3.58;1.75;;;;;;;;;;5002505;28;20045;-53
2023/08/31 12:48:39;;;;;;;3.25;1.70;;;;;;;;;;5002706;28;20061;-49
2023/08/31 12:51:06;;;;;;;3.72;2.30;;;;;;;;;;5007201;28;20057;-50
2023/08/31 12:53:40;;;;;;;6.03;2.15;;;;;;;;;;5003083;28;20461;-50
2023/08/31 12:56:07;;;;;;;2.78;1.50;;;;;;;;;;5003574;28;20452;-60
2023/08/31 12:58:34;;;;;;;2.92;2.10;;;;;;;;;;5006786;28;20509;-47
2023/08/31 13:01:08;;;;;;;4.78;2.17;;;;;;;;;;5003062;28;20053;-50
2023/08/31 13:03:35;;;;;;;1.98;1.73;;;;;;;;;;5004695;28;20132;-50
2023/08/31 13:06:09;;;;;;;4.40;2.13;;;;;;;;;;5006555;28;20054;-52
2023/08/31 13:08:36;;;;;;;2.88;1.95;;;;;;;;;;5005295;28;20054;-48
2023/08/31 13:11:04;;;;;;;5.07;1.92;;;;;;;;;;5003850;28;20057;-50
2023/08/31 13:13:38;;;;;;;2.28;1.75;;;;;;;;;;5005395;28;20498;-52
2023/08/31 13:16:05;;;;;;;3.05;1.60;;;;;;;;;;5001268;28;20054;-50
2023/08/31 13:18:46;;;;;;;4.30;1.45;;;;;;;;;;5003535;28;20058;-50
2023/08/31 13:21:20;;;;;;;2.53;1.60;;;;;;;;;;5001645;28;20501;-51
2023/08/31 13:23:53;;;;;;;2.17;1.30;;;;;;;;;;5007445;28;20061;-61
2023/08/31 13:26:27;;;;;;;2.28;1.33;;;;;;;;;;5003894;28;20287;-51
2023/08/31 13:28:55;;;;;;;3.70;1.55;;;;;;;;;;5007794;28;20489;-48
2023/08/31 13:31:22;;;;;;;;;;;;;;;;;;5002691;28;20054;-50
2023/08/31 13:33:55;;;;;;;1.83;1.42;;;;;;;;;;4984034;28;20047;-52
2023/08/31 13:36:22;;;;;;;5.25;1.88;;;;;;;;;;5007594;28;20058;-49
2023/08/31 13:38:56;;;;;;;1.48;1.38;;;;;;;;;;5003644;28;20053;-50
2023/08/31 13:41:23;;;;;;;2.90;1.20;;;;;;;;;;5004806;28;20095;-51
2023/08/31 13:43:57;;;;;;;2.45;1.60;;;;;;;;;;5004522;28;20144;-52
2023/08/31 13:46:24;;;;;;;1.85;1.50;;;;;;;;;;5001092;28;20915;-52
2023/08/31 13:48:52;;;;;;;2.65;1.35;;;;;;;;;;5003596;28;20076;-52
2023/08/31 13:51:25;;;;;;;3.30;1.42;;;;;;;;;;5003119;28;20058;-51
2023/08/31 13:54:07;;;;;;;2.15;1.40;;;;;;;;;;5003664;28;20054;-60
2023/08/31 13:56:50;;;;;;;2.70;1.58;;;;;;;;;;5003482;28;20112;-60
2023/08/31 13:59:17;;;;;;;3.13;1.80;;;;;;;;;;5000357;28;20058;-60
2023/08/31 14:01:51;;;;;;;3.67;1.50;;;;;;;;;;5001672;28;20391;-60
2023/08/31 14:04:25;;;;;;;2.03;1.27;;;;;;;;;;4997243;28;20060;-60
2023/08/31 14:06:53;;;;;;;4.15;1.33;;;;;;;;;;4991856;28;20495;-60
2023/08/31 14:09:46;;;;;;;3.97;1.23;;;;;;;;;;5003748;28;20061;-62
2023/08/31 14:12:40;;;;;;;4.53;1.60;;;;;;;;;;5003179;28;20580;-62
2023/08/31 14:15:34;;;;;;;1.33;1.05;;;;;;;;;;5004217;28;20054;-62
2023/08/31 14:18:29;;;;;;;3.95;1.25;;;;;;;;;;5006872;28;20144;-62
2023/08/31 14:21:23;;;;;;;2.25;1.70;;;;;;;;;;5003491;28;20053;-50
2023/08/31 14:24:11;;;;;;;1.50;1.40;;;;;;;;;;5006926;28;20104;-50
2023/08/31 14:27:05;;;;;;;2.38;1.80;;;;;;;;;;5009705;28;20053;-51
2023/08/31 14:29:58;;;;;;;3.08;1.67;;;;;;;;;;5006133;28;20108;-50
2023/08/31 14:32:52;;;;;;;2.72;1.60;;;;;;;;;;5002959;28;20054;-48
2023/08/31 14:35:39;;;;;;;5.70;1.80;;;;;;;;;;5002663;28;20050;-47
2023/08/31 14:38:33;;;;;;;3.58;1.48;;;;;;;;;;5005017;28;20046;-63
2023/08/31 14:41:20;;;;;;;4.10;1.60;;;;;;;;;;5002106;28;20137;-63
2023/08/31 14:44:14;;;;;;;3.00;1.73;;;;;;;;;;4999630;28;20058;-63
2023/08/31 14:47:01;;;;;;;2.72;1.60;;;;;;;;;;5001835;28;20061;-64
2023/08/31 14:49:55;;;;;;;4.15;1.60;;;;;;;;;;5003327;28;20055;-57
2023/08/31 14:52:43;;;;;;;2.67;1.70;;;;;;;;;;4987661;28;22823;-48
2023/08/31 14:55:37;;;;;;;5.25;2.03;;;;;;;;;;4999230;28;20062;-48
2023/08/31 14:58:24;;;;;;;2.10;1.50;;;;;;;;;;5000415;28;20136;-49
2023/08/31 15:01:17;;;;;;;2.67;1.75;;;;;;;;;;5002864;28;20300;-51
2023/08/31 15:04:05;;;;;;;2.85;1.75;;;;;;;;;;5006671;28;20072;-52
2023/08/31 15:06:58;;;;;;;7.43;2.30;;;;;;;;;;5002789;28;20733;-64
2023/08/31 15:09:52;;;;;;;4.28;1.67;;;;;;;;;;5001176;28;20050;-64
2023/08/31 15:12:46;;;;;;;3.33;1.77;;;;;;;;;;5003764;28;20137;-64
2023/08/31 15:15:44;;;;;;;3.72;2.10;;;;;;;;;;5003972;28;20112;-64
2023/08/31 15:18:31;;;;;;;4.70;1.67;;;;;;;;;;5003393;28;20420;-56
2023/08/31 15:21:32;;;;;;;2.65;1.73;;;;;;;;;;5006275;28;20147;-51
2023/08/31 15:24:19;;;;;;;4.15;1.90;;;;;;;;;;5003878;28;20057;-52
2023/08/31 15:27:13;;;;;;;1.98;1.50;;;;;;;;;;5007598;28;20116;-50
2023/08/31 15:30:08;;;;;;;2.53;1.70;;;;;;;;;;5010826;28;20053;-49
2023/08/31 15:33:05;;;;;;;3.40;1.92;;;;;;;;;;5003530;28;20057;-53
2023/08/31 15:35:54;;;;;;;4.70;1.73;;;;;;;;;;5004926;28;20465;-59
2023/08/31 15:38:46;;;;;;;2.83;1.77;;;;;;;;;;5005342;28;20093;-60
2023/08/31 15:41:35;;;;;;;3.15;1.88;;;;;;;;;;5004626;28;20104;-60
2023/08/31 15:44:27;;;;;;;4.43;1.70;;;;;;;;;;5007041;28;20065;-60
2023/08/31 15:47:14;;;;;;;3.22;1.90;;;;;;;;;;5006357;28;20064;-62
2023/08/31 15:50:08;;;;;;;3.13;1.63;;;;;;;;;;5008838;28;20042;-52
2023/08/31 15:52:56;;;;;;;3.55;1.75;;;;;;;;;;5004155;28;20069;-50
2023/08/31 15:55:50;;;;;;;3.42;1.60;;;;;;;;;;5005594;28;20501;-50
2023/08/31 15:58:43;;;;;;;3.00;1.38;;;;;;;;;;5007027;28;20050;-52
2023/08/31 16:01:37;;;;;;;2.75;1.58;;;;;;;;;;5005924;28;20567;-51
2023/08/31 16:04:24;;;;;;;5.40;1.52;;;;;;;;;;5000269;28;20110;-64
2023/08/31 16:07:18;;;;;;;2.33;1.60;;;;;;;;;;5003074;28;20058;-64
2023/08/31 16:10:06;;;;;;;3.30;1.77;;;;;;;;;;5009515;28;20506;-63
2023/08/31 16:12:59;;;;;;;3.28;1.63;;;;;;;;;;5009503;28;20050;-64
2023/08/31 16:15:53;;;;;;;3.00;1.40;;;;;;;;;;5008764;28;20058;-63
2023/08/31 16:18:48;;;;;;;2.55;1.20;;;;;;;;;;5008706;28;20062;-48
2023/08/31 16:21:47;;;;;;;3.15;1.25;;;;;;;;;;5001455;28;20042;-53
2023/08/31 16:24:34;;;;;;;5.78;1.80;;;;;;;;;;5007744;28;20052;-47
2023/08/31 16:27:29;;;;;;;1.90;1.35;;;;;;;;;;5003499;28;20501;-50
2023/08/31 16:30:15;;;;;;;2.00;1.33;;;;;;;;;;5002441;28;20506;-51
2023/08/31 16:32:50;;;;;;;4.18;1.50;;;;;;;;;;4983567;28;20061;-50
2023/08/31 16:35:17;;;;;;;3.72;1.60;;;;;;;;;;5000445;28;20068;-49
2023/08/31 16:37:45;;;;;;;2.83;1.58;;;;;;;;;;4991690;28;20417;-52
2023/08/31 16:40:39;;;;;;;5.90;1.70;;;;;;;;;;4992595;28;20068;-53
2023/08/31 16:43:27;;;;;;;2.60;1.73;;;;;;;;;;4995935;28;20053;-49
2023/08/31 16:46:19;;;;;;;2.83;1.60;;;;;;;;;;5001701;28;20058;-56
2023/08/31 16:49:06;;;;;;;4.70;1.92;;;;;;;;;;4986431;28;20133;-56
2023/08/31 16:52:00;;;;;;;3.80;1.67;;;;;;;;;;4998988;28;20837;-55
2023/08/31 16:54:48;;;;;;;4.65;1.90;;;;;;;;;;4999757;28;20124;-57